Impacts TAF Board INFO
FOR SITUATIONAL AWARENESS. NOT TO BE USED FOR FLIGHT PLANNING PURPOSES.
IDs:

KSEA - Seattle-Tacoma Intl, WA, US

Issued at 0224 UTC 25 May 2017
Updated at 0259 UTC 25 May 2017
Potential Impact None Slight Moderate High
Time0253Z 25/03Z 25/04Z 25/05Z 25/06Z 25/07Z 25/08Z 25/09Z 25/10Z 25/11Z 25/12Z 25/13Z 25/14Z 25/15Z>>
Type OBS PRVL PRVL PRVL PRVL PRVL PRVL PRVL PRVL PRVL PRVL PRVL PRVL PRVL
VIS 10 >6 >6 >6 >6 >6 >6 >6 >6 >6 >6 >6 >6 >6
CIG 48 80 80 -- -- -- -- -- -- -- -- -- -- --
Cover BKN BKN BKN SCT SCT SCT SCT SCT SCT SCT SCT SCT SCT SCT
FltCat VFR VFR VFR VFR VFR VFR VFR VFR VFR VFR VFR VFR VFR VFR
WX -- -- -- -- -- -- -- -- -- -- -- -- -- --
WDir 350 20 20 VRB VRB VRB VRB VRB VRB VRB VRB VRB VRB VRB
WSpd 5 6 6 3 3 3 3 3 3 3 3 3 3 3
WGst -- -- -- -- -- -- -- -- -- -- -- -- -- --

Raw TAF
KSEA 250224Z 2502/2606 02006KT P6SM BKN080 BKN200
  FM250500 VRB03KT P6SM SCT080 SCT200
  FM252000 33008KT P6SM FEW050


Raw METAR
KSEA 250253Z 35005KT 10SM BKN048 16/06 A2995 RMK AO2 SLP147 T01560056 55007
KSEA 250153Z 01007KT 10SM SCT048 BKN080 BKN200 16/05 A2994 RMK AO2 SLP146 T01610050
KSEA 250053Z VRB05KT 10SM FEW050 BKN075 BKN200 16/04 A2995 RMK AO2 SLP149 T01610044
KSEA 242353Z 35004KT 10SM OVC050 16/04 A2997 RMK AO2 SLP154 T01560039 10172 20128 55008

METAR Board
Radar Display
Forecast Discussion

FOR SITUATIONAL AWARENESS. NOT TO BE USED FOR FLIGHT PLANNING PURPOSES.

Page loaded:  02:59 UTC  |   07:59 PM Pacific  |   08:59 PM Mountain  |   09:59 PM Central  |   10:59 PM Eastern

 

ADVISORIES

FORECASTS

FORECASTS

OBSERVATIONS

USER TOOLS

ABOUT US